Time;durP1;ratioP1;P1;durP2;ratioP2;P2;SDS_P1;SDS_P2;PMS_P1;PMS_P2;Temp;Humidity;BMP_temperature;BMP_pressure;BME280_temperature;BME280_humidity;BME280_pressure;Samples;Min_cycle;Max_cycle;Signal;HPM_P1;HPM_P2
2024/01/16 05:00:32;;;;;;;0.90;0.80;;;1.20;97.30;;;;;;6056292;23;20361;-69
2024/01/16 05:02:58;;;;;;;1.53;1.47;;;1.10;97.30;;;;;;4966405;28;20801;-71
2024/01/16 05:05:23;;;;;;;0.90;0.80;;;1.10;97.30;;;;;;4967782;28;20451;-69
2024/01/16 05:07:49;;;;;;;2.50;2.30;;;1.10;97.30;;;;;;4977561;28;20447;-70
2024/01/16 05:10:14;;;;;;;0.90;0.80;;;1.10;97.30;;;;;;4968352;28;20253;-72
2024/01/16 05:12:41;;;;;;;2.90;2.70;;;1.10;97.30;;;;;;4975666;28;20293;-70
2024/01/16 05:15:07;;;;;;;1.00;0.90;;;1.10;97.30;;;;;;4968278;28;20218;-70
2024/01/16 05:17:33;;;;;;;2.50;1.67;;;1.10;97.30;;;;;;4968646;28;20542;-72
2024/01/16 05:20:01;;;;;;;0.97;0.87;;;1.00;97.30;;;;;;4977805;28;20450;-72
2024/01/16 05:22:26;;;;;;;1.37;1.30;;;1.00;97.30;;;;;;4962066;28;20252;-66
2024/01/16 05:24:52;;;;;;;0.90;0.80;;;1.00;97.30;;;;;;4980095;28;20436;-72
2024/01/16 05:27:17;;;;;;;1.80;1.70;;;1.00;97.30;;;;;;4974836;28;20377;-73
2024/01/16 05:29:43;;;;;;;0.90;0.80;;;1.00;97.30;;;;;;4980406;28;20221;-72
2024/01/16 05:32:08;;;;;;;1.00;0.90;;;0.90;97.30;;;;;;4972381;28;20214;-71
2024/01/16 05:34:34;;;;;;;1.23;1.13;;;0.90;97.30;;;;;;4982973;28;20662;-71
2024/01/16 05:36:59;;;;;;;1.00;0.90;;;0.90;97.30;;;;;;4978922;28;20189;-70
2024/01/16 05:39:25;;;;;;;1.30;1.20;;;0.90;97.30;;;;;;4972214;28;20175;-73
2024/01/16 05:41:51;;;;;;;1.70;1.60;;;0.90;97.30;;;;;;4984553;28;20206;-73
2024/01/16 05:44:16;;;;;;;1.00;0.90;;;0.90;97.30;;;;;;4993013;28;20182;-72
2024/01/16 05:46:42;;;;;;;1.33;1.23;;;0.90;97.30;;;;;;4982954;28;20485;-73
2024/01/16 05:49:08;;;;;;;1.17;1.07;;;0.90;97.30;;;;;;4991568;28;20178;-74
2024/01/16 05:51:33;;;;;;;1.00;0.90;;;0.90;97.30;;;;;;4978967;28;20457;-72
2024/01/16 05:53:59;;;;;;;1.07;0.97;;;0.90;97.30;;;;;;4979967;28;20317;-72
2024/01/16 05:56:24;;;;;;;2.97;2.80;;;0.90;97.30;;;;;;4979967;28;20177;-72
2024/01/16 05:58:51;;;;;;;1.00;0.90;;;0.80;97.30;;;;;;4987844;28;20178;-71
2024/01/16 06:01:17;;;;;;;1.10;1.00;;;0.80;97.30;;;;;;4970348;28;20230;-71
2024/01/16 06:03:45;;;;;;;1.10;1.00;;;0.80;97.30;;;;;;4975158;28;20426;-72
2024/01/16 06:06:11;;;;;;;0.90;0.80;;;0.80;97.30;;;;;;4983258;28;20284;-72
2024/01/16 06:08:36;;;;;;;1.40;1.30;;;0.80;97.30;;;;;;4990153;28;20432;-73
2024/01/16 06:11:02;;;;;;;1.90;1.10;;;0.80;97.30;;;;;;4971496;28;20452;-72
2024/01/16 06:13:28;;;;;;;0.90;0.80;;;0.70;97.30;;;;;;4988750;28;20272;-72
2024/01/16 06:15:55;;;;;;;2.40;2.00;;;0.70;97.30;;;;;;4971498;28;20209;-73
2024/01/16 06:18:20;;;;;;;1.33;1.23;;;0.70;97.30;;;;;;4987115;28;20517;-70
2024/01/16 06:20:46;;;;;;;0.90;0.80;;;0.60;97.30;;;;;;4971991;28;20310;-70
2024/01/16 06:23:12;;;;;;;1.00;0.90;;;0.60;97.30;;;;;;4978952;28;20269;-73
2024/01/16 06:25:37;;;;;;;1.30;1.20;;;0.50;97.30;;;;;;4982636;28;20421;-72
2024/01/16 06:28:05;;;;;;;2.07;1.40;;;0.50;97.30;;;;;;4984105;28;20658;-72
2024/01/16 06:30:30;;;;;;;1.20;1.10;;;0.50;97.30;;;;;;4982102;28;20210;-71
2024/01/16 06:32:56;;;;;;;2.03;1.07;;;0.50;97.30;;;;;;4982908;28;20470;-71
2024/01/16 06:35:23;;;;;;;1.00;0.90;;;0.50;97.30;;;;;;4983505;28;20214;-71
2024/01/16 06:37:49;;;;;;;2.37;2.17;;;0.50;97.30;;;;;;4987743;28;20701;-70
2024/01/16 06:40:14;;;;;;;1.00;0.90;;;0.50;97.30;;;;;;4971373;28;20513;-71
2024/01/16 06:42:41;;;;;;;1.00;0.90;;;0.50;97.30;;;;;;4971860;28;20281;-70
2024/01/16 06:45:07;;;;;;;1.20;1.10;;;0.50;97.30;;;;;;4983306;28;20257;-71
2024/01/16 06:47:33;;;;;;;1.20;1.10;;;0.50;97.30;;;;;;4980653;28;20882;-72
2024/01/16 06:49:58;;;;;;;1.10;1.00;;;0.50;97.30;;;;;;4978767;28;20430;-71
2024/01/16 06:52:24;;;;;;;0.80;0.70;;;0.50;97.30;;;;;;4977919;28;20202;-72
2024/01/16 06:54:50;;;;;;;1.07;0.90;;;0.50;97.30;;;;;;4971787;28;20178;-70
2024/01/16 06:57:16;;;;;;;1.30;1.20;;;0.50;97.30;;;;;;4971096;28;20509;-73
2024/01/16 06:59:41;;;;;;;0.97;0.87;;;0.40;97.30;;;;;;4980158;28;20584;-72
2024/01/16 07:02:07;;;;;;;7.60;2.20;;;0.50;97.30;;;;;;4983526;28;20265;-72
2024/01/16 07:04:33;;;;;;;0.90;0.80;;;0.40;97.30;;;;;;4982585;28;20183;-73
2024/01/16 07:06:59;;;;;;;1.00;0.90;;;0.40;97.30;;;;;;4982324;28;20498;-72
2024/01/16 07:09:27;;;;;;;1.27;1.17;;;0.30;97.30;;;;;;4990589;28;20178;-71
2024/01/16 07:11:53;;;;;;;1.00;0.90;;;0.20;97.30;;;;;;4982181;28;20206;-72
2024/01/16 07:14:18;;;;;;;1.57;1.47;;;0.20;97.30;;;;;;4982030;28;20464;-71
2024/01/16 07:16:44;;;;;;;1.10;1.00;;;0.10;97.30;;;;;;4981677;28;20449;-72
2024/01/16 07:19:09;;;;;;;1.10;1.00;;;0.10;97.30;;;;;;4986309;28;20230;-72
2024/01/16 07:21:35;;;;;;;1.00;0.90;;;0.00;97.30;;;;;;4978439;28;20206;-72
2024/01/16 07:24:00;;;;;;;1.10;1.00;;;0.00;97.30;;;;;;4978608;28;20194;-70
2024/01/16 07:26:26;;;;;;;0.90;0.80;;;0.00;97.30;;;;;;4985721;28;20548;-71
2024/01/16 07:28:51;;;;;;;1.30;1.20;;;-0.10;97.30;;;;;;4980478;28;20227;-71
2024/01/16 07:31:17;;;;;;;1.00;0.90;;;-0.10;97.30;;;;;;4984012;28;20264;-70
2024/01/16 07:33:43;;;;;;;1.00;0.90;;;-0.10;97.30;;;;;;4978285;28;20291;-72
2024/01/16 07:36:09;;;;;;;1.10;1.00;;;-0.10;97.30;;;;;;4978402;28;20557;-72
2024/01/16 07:38:36;;;;;;;0.90;0.80;;;-0.10;97.30;;;;;;4986542;28;20276;-71
2024/01/16 07:41:01;;;;;;;1.00;0.90;;;-0.10;97.30;;;;;;4981370;28;20445;-71
2024/01/16 07:43:27;;;;;;;1.10;1.00;;;-0.10;97.30;;;;;;4975209;28;20441;-71
2024/01/16 07:45:52;;;;;;;1.00;0.90;;;0.00;97.30;;;;;;4972444;28;20526;-70
2024/01/16 07:48:18;;;;;;;0.97;0.87;;;0.00;97.30;;;;;;4981254;28;20190;-72
2024/01/16 07:50:45;;;;;;;1.50;1.40;;;0.00;97.30;;;;;;4984886;28;20264;-71
2024/01/16 07:53:11;;;;;;;1.00;0.90;;;0.00;97.30;;;;;;4984819;28;20205;-72
2024/01/16 07:55:37;;;;;;;2.03;1.90;;;0.10;97.30;;;;;;4969671;28;20421;-71
2024/01/16 07:58:04;;;;;;;1.30;1.20;;;0.10;97.30;;;;;;4982396;28;20178;-71
2024/01/16 08:00:30;;;;;;;3.83;3.63;;;0.10;97.30;;;;;;4978958;28;20205;-73
2024/01/16 08:02:56;;;;;;;1.20;1.10;;;0.10;97.30;;;;;;4979319;28;20430;-70
2024/01/16 08:05:25;;;;;;;1.63;1.53;;;0.10;97.30;;;;;;4983536;28;20197;-71
2024/01/16 08:07:51;;;;;;;1.00;0.90;;;0.20;97.30;;;;;;4972410;28;20193;-71
2024/01/16 08:10:16;;;;;;;16.27;1.87;;;0.20;97.30;;;;;;4977533;28;20438;-71
2024/01/16 08:12:42;;;;;;;2.20;1.40;;;0.30;97.30;;;;;;4978691;28;20223;-71
2024/01/16 08:15:08;;;;;;;1.27;1.23;;;0.30;97.30;;;;;;4978664;28;20190;-70
2024/01/16 08:17:34;;;;;;;0.97;0.87;;;0.40;97.30;;;;;;4969382;28;20182;-68
2024/01/16 08:19:59;;;;;;;1.27;1.17;;;0.40;97.30;;;;;;4988335;28;20543;-70
2024/01/16 08:22:25;;;;;;;0.90;0.80;;;0.40;97.30;;;;;;4982318;28;20446;-70
2024/01/16 08:24:52;;;;;;;1.00;0.90;;;0.50;97.30;;;;;;4977086;28;20182;-70
2024/01/16 08:27:19;;;;;;;2.40;2.20;;;0.50;97.30;;;;;;4970426;28;20186;-69
2024/01/16 08:29:44;;;;;;;1.00;0.90;;;0.50;97.30;;;;;;4986575;28;20487;-71
2024/01/16 08:32:10;;;;;;;1.73;1.63;;;0.50;97.30;;;;;;4970637;28;20783;-73
2024/01/16 08:34:35;;;;;;;1.10;1.00;;;0.60;97.30;;;;;;4978337;28;20209;-71
2024/01/16 08:37:01;;;;;;;2.50;2.30;;;0.70;97.30;;;;;;4989628;28;20842;-70
2024/01/16 08:39:27;;;;;;;1.40;1.30;;;0.70;97.30;;;;;;4974025;28;20201;-70
2024/01/16 08:41:54;;;;;;;1.70;1.60;;;0.70;97.30;;;;;;4980113;28;20275;-72
2024/01/16 08:44:19;;;;;;;2.10;1.00;;;0.80;97.30;;;;;;4974840;28;20440;-72
2024/01/16 08:46:46;;;;;;;1.10;1.00;;;0.90;97.30;;;;;;4977880;28;20524;-70
2024/01/16 08:49:11;;;;;;;8.00;1.40;;;0.90;97.30;;;;;;4980270;28;20189;-69
2024/01/16 08:51:37;;;;;;;1.30;1.20;;;1.00;97.30;;;;;;4973581;28;20492;-71
2024/01/16 08:54:02;;;;;;;1.00;0.90;;;1.00;97.30;;;;;;4978006;28;20257;-72
2024/01/16 08:56:28;;;;;;;1.10;1.00;;;1.10;97.30;;;;;;4975478;28;20676;-69
2024/01/16 08:58:53;;;;;;;1.90;1.30;;;1.20;97.30;;;;;;4977931;28;20650;-73
2024/01/16 09:01:20;;;;;;;1.20;1.10;;;1.30;97.30;;;;;;4968606;28;20238;-71
2024/01/16 09:03:47;;;;;;;2.03;1.33;;;1.30;97.30;;;;;;4969467;28;20186;-72
2024/01/16 09:06:12;;;;;;;1.20;1.10;;;1.40;97.30;;;;;;4975841;28;20476;-66
2024/01/16 09:08:38;;;;;;;1.73;1.63;;;1.40;97.30;;;;;;4976469;28;20528;-69
2024/01/16 09:11:03;;;;;;;1.10;1.00;;;1.40;97.30;;;;;;4970056;28;20425;-72
2024/01/16 09:13:29;;;;;;;0.97;0.87;;;1.40;97.30;;;;;;4968620;28;20221;-72
2024/01/16 09:15:54;;;;;;;0.90;0.80;;;1.50;97.30;;;;;;4977683;28;20185;-70
2024/01/16 09:18:20;;;;;;;4.50;1.83;;;1.50;97.30;;;;;;4973875;28;20646;-69
2024/01/16 09:20:46;;;;;;;1.10;1.00;;;1.50;97.30;;;;;;4971133;28;20238;-72
2024/01/16 09:23:12;;;;;;;1.00;0.90;;;1.50;97.30;;;;;;4988840;28;20643;-71
2024/01/16 09:25:38;;;;;;;1.00;0.90;;;1.50;97.30;;;;;;4987545;28;20487;-72
2024/01/16 09:28:03;;;;;;;0.90;0.80;;;1.40;97.30;;;;;;4979543;28;20444;-71
2024/01/16 09:30:29;;;;;;;0.90;0.80;;;1.50;97.30;;;;;;4973133;28;20210;-69
2024/01/16 09:32:55;;;;;;;1.10;1.00;;;1.50;97.30;;;;;;4977587;28;20600;-69
2024/01/16 09:35:22;;;;;;;1.10;1.00;;;1.60;97.30;;;;;;4981441;28;20185;-73
2024/01/16 09:37:47;;;;;;;2.70;1.30;;;1.60;97.30;;;;;;4972069;28;20175;-70
2024/01/16 09:40:13;;;;;;;1.00;0.90;;;1.70;97.30;;;;;;4973508;28;20410;-73
2024/01/16 09:42:40;;;;;;;1.00;0.90;;;1.70;97.30;;;;;;4988981;28;20544;-72
2024/01/16 09:45:06;;;;;;;2.83;2.03;;;1.80;97.30;;;;;;4979713;28;20429;-70
2024/01/16 09:47:33;;;;;;;11.40;2.23;;;1.70;97.30;;;;;;4979781;28;20452;-71
2024/01/16 09:50:03;;;;;;;6.10;1.77;;;1.80;97.30;;;;;;4980824;28;20585;-73
2024/01/16 09:52:29;;;;;;;2.07;1.93;;;1.70;97.30;;;;;;4970221;28;20541;-68
2024/01/16 09:54:55;;;;;;;1.00;0.90;;;1.70;97.30;;;;;;4977771;28;20473;-71
2024/01/16 09:57:25;;;;;;;1.47;1.37;;;1.70;97.30;;;;;;4989181;28;20462;-72
2024/01/16 09:59:52;;;;;;;1.70;1.60;;;1.80;97.30;;;;;;4988664;28;20933;-72
2024/01/16 10:02:19;;;;;;;3.67;3.47;;;1.80;97.30;;;;;;4982857;28;20485;-73
2024/01/16 10:04:44;;;;;;;2.60;1.33;;;1.80;97.30;;;;;;4976222;28;20823;-73
2024/01/16 10:07:13;;;;;;;3.37;2.50;;;1.80;97.30;;;;;;4972833;28;20971;-74
2024/01/16 10:09:39;;;;;;;2.60;1.50;;;1.80;97.30;;;;;;4979414;28;20186;-71
2024/01/16 10:12:06;;;;;;;1.00;0.90;;;1.80;97.30;;;;;;4978587;28;20453;-69
2024/01/16 10:14:33;;;;;;;1.20;1.10;;;1.70;97.30;;;;;;4977958;28;20233;-73
2024/01/16 10:17:05;;;;;;;1.00;0.90;;;1.80;97.30;;;;;;4982701;28;20424;-72
2024/01/16 10:19:31;;;;;;;1.77;1.67;;;1.80;97.30;;;;;;4971656;28;20441;-71
2024/01/16 10:22:04;;;;;;;1.03;0.93;;;1.90;97.30;;;;;;4981258;28;20445;-71
2024/01/16 10:24:30;;;;;;;1.83;1.73;;;1.90;97.30;;;;;;4982912;28;20428;-69
2024/01/16 10:27:03;;;;;;;1.20;1.10;;;2.00;97.30;;;;;;4981423;28;20640;-69
2024/01/16 10:29:31;;;;;;;1.10;1.00;;;2.10;97.30;;;;;;4971434;28;20437;-71
2024/01/16 10:31:57;;;;;;;1.10;1.00;;;2.00;97.30;;;;;;4988936;28;20975;-71
2024/01/16 10:34:22;;;;;;;1.73;1.60;;;2.00;97.30;;;;;;4983902;28;20468;-70
2024/01/16 10:36:52;;;;;;;1.20;1.10;;;2.00;97.30;;;;;;4974275;28;20194;-70
2024/01/16 10:39:17;;;;;;;0.90;0.80;;;2.00;97.30;;;;;;4970536;28;20452;-70
2024/01/16 10:41:54;;;;;;;1.67;1.57;;;2.10;97.30;;;;;;4979177;28;20536;-73
2024/01/16 10:44:19;;;;;;;22.83;2.10;;;2.20;97.30;;;;;;4964836;28;20190;-71
2024/01/16 10:46:45;;;;;;;0.97;0.87;;;2.20;97.30;;;;;;4987830;28;20447;-73
2024/01/16 10:49:11;;;;;;;1.23;1.13;;;2.30;97.30;;;;;;4983871;28;20662;-71
2024/01/16 10:51:39;;;;;;;1.10;1.00;;;2.20;97.30;;;;;;4983196;28;20206;-73
2024/01/16 10:54:05;;;;;;;1.00;0.90;;;2.20;97.30;;;;;;4988293;28;20649;-72
2024/01/16 10:56:32;;;;;;;1.10;1.00;;;2.10;97.30;;;;;;4977209;28;20475;-72
2024/01/16 10:59:09;;;;;;;6.33;1.20;;;2.10;97.30;;;;;;4982476;28;20519;-73
2024/01/16 11:01:35;;;;;;;0.90;0.80;;;2.10;97.30;;;;;;4986564;28;20480;-72
2024/01/16 11:04:02;;;;;;;1.00;0.90;;;2.10;97.30;;;;;;4974063;28;20445;-73
2024/01/16 11:06:28;;;;;;;0.97;0.87;;;2.20;97.30;;;;;;4982429;28;20771;-76
2024/01/16 11:08:56;;;;;;;1.30;1.20;;;2.30;97.30;;;;;;4982572;28;20763;-70
2024/01/16 11:11:22;;;;;;;1.00;0.90;;;2.30;97.30;;;;;;4972062;28;20457;-73
2024/01/16 11:13:49;;;;;;;1.03;0.93;;;2.30;97.30;;;;;;4986250;28;20457;-72
2024/01/16 11:16:16;;;;;;;1.67;1.27;;;2.20;97.30;;;;;;4983806;23;20421;-87
2024/01/16 11:18:41;;;;;;;1.67;1.57;;;2.20;97.30;;;;;;4970957;28;20445;-87
2024/01/16 11:21:12;;;;;;;1.87;1.77;;;2.20;97.30;;;;;;4971427;28;20437;-88
2024/01/16 11:23:38;;;;;;;1.40;1.30;;;2.30;97.30;;;;;;4970555;28;20201;-87
2024/01/16 11:26:25;;;;;;;8.10;3.07;;;2.30;97.30;;;;;;4970399;28;20434;-88
2024/01/16 11:28:53;;;;;;;1.07;1.03;;;2.40;97.30;;;;;;4955326;28;20662;-86
2024/01/16 11:31:29;;;;;;;8.70;1.47;;;2.50;97.30;;;;;;4959477;28;20522;-88
2024/01/16 11:33:54;;;;;;;2.13;1.37;;;2.70;97.30;;;;;;4952118;28;20473;-87
2024/01/16 11:36:42;;;;;;;1.10;1.00;;;2.70;97.30;;;;;;4964703;28;20500;-88
2024/01/16 11:39:11;;;;;;;1.60;1.37;;;2.80;97.30;;;;;;4960440;28;20189;-87
2024/01/16 11:41:53;;;;;;;0.90;0.80;;;2.90;97.30;;;;;;4961169;28;20426;-89
2024/01/16 11:44:50;;;;;;;1.03;0.93;;;2.80;97.30;;;;;;4961116;28;20437;-89
2024/01/16 11:47:23;;;;;;;2.17;2.00;;;2.70;97.30;;;;;;4952690;28;20513;-89
2024/01/16 11:50:07;;;;;;;1.10;1.00;;;2.60;97.30;;;;;;4960192;28;20772;-88
2024/01/16 11:52:42;;;;;;;1.00;0.90;;;2.60;97.30;;;;;;4949101;28;20529;-87
2024/01/16 11:55:26;;;;;;;1.50;1.40;;;2.40;97.30;;;;;;4952194;28;20813;-89
2024/01/16 11:58:10;;;;;;;1.07;0.97;;;2.40;97.30;;;;;;4953819;28;20455;-88
2024/01/16 12:00:41;;;;;;;1.10;1.10;;;2.30;97.30;;;;;;4955124;28;20415;-90
2024/01/16 12:03:06;;;;;;;2.10;1.30;;;2.20;97.30;;;;;;4961209;28;20541;-89
2024/01/16 12:05:32;;;;;;;4.70;1.90;;;2.30;97.30;;;;;;4963873;28;20483;-88
2024/01/16 12:07:58;;;;;;;1.27;1.10;;;2.20;97.30;;;;;;4962526;28;20572;-89
2024/01/16 12:10:25;;;;;;;3.17;1.57;;;2.20;97.30;;;;;;4952117;28;20187;-89
2024/01/16 12:12:51;;;;;;;1.10;1.00;;;2.30;97.30;;;;;;4968261;28;20708;-88
2024/01/16 12:15:18;;;;;;;1.90;1.70;;;2.30;97.30;;;;;;4953588;28;20949;-88
2024/01/16 12:18:00;;;;;;;2.20;1.30;;;2.30;97.30;;;;;;4960811;28;20528;-89
2024/01/16 12:20:29;;;;;;;1.20;1.03;;;2.30;97.30;;;;;;4945323;28;20425;-89
2024/01/16 12:22:56;;;;;;;3.37;1.57;;;2.30;97.30;;;;;;4947773;28;20432;-88
2024/01/16 12:25:22;;;;;;;1.07;0.97;;;2.20;97.30;;;;;;4952244;28;20426;-90
2024/01/16 12:28:01;;;;;;;1.00;0.90;;;2.20;97.30;;;;;;4964598;28;20443;-88
2024/01/16 12:30:31;;;;;;;1.00;0.90;;;2.20;97.30;;;;;;4941924;28;20556;-88
2024/01/16 12:33:07;;;;;;;1.57;1.23;;;2.20;97.30;;;;;;4946314;28;20463;-89
2024/01/16 12:35:40;;;;;;;1.00;0.90;;;2.20;97.30;;;;;;4953161;28;20461;-90
2024/01/16 12:38:10;;;;;;;1.20;1.10;;;2.20;97.30;;;;;;4949339;28;20436;-89
2024/01/16 12:40:39;;;;;;;1.47;1.30;;;2.30;97.30;;;;;;4947036;28;20936;-88
2024/01/16 12:43:05;;;;;;;0.93;0.83;;;2.30;97.30;;;;;;4946288;28;20541;-87
2024/01/16 12:45:31;;;;;;;1.80;1.53;;;2.40;97.30;;;;;;4954630;28;20749;-89
2024/01/16 12:48:00;;;;;;;1.20;1.10;;;2.40;97.30;;;;;;4946837;28;20451;-89
2024/01/16 12:50:29;;;;;;;3.03;1.30;;;2.40;97.30;;;;;;4955954;28;20179;-89
2024/01/16 12:53:09;;;;;;;1.20;1.10;;;2.50;97.30;;;;;;4950403;28;20486;-89
2024/01/16 12:55:37;;;;;;;5.47;3.80;;;2.50;97.30;;;;;;4959266;28;20761;-88
2024/01/16 12:58:19;;;;;;;4.87;2.10;;;2.50;97.30;;;;;;4964971;28;20450;-89
2024/01/16 13:00:47;;;;;;;1.27;1.17;;;2.60;97.30;;;;;;4955030;28;20410;-90
2024/01/16 13:03:30;;;;;;;2.27;2.10;;;2.60;97.30;;;;;;4962265;28;20421;-88
2024/01/16 13:05:58;;;;;;;1.00;0.90;;;2.60;97.30;;;;;;4955196;28;20423;-88
2024/01/16 13:08:25;;;;;;;0.93;0.83;;;2.50;97.30;;;;;;4952832;28;20429;-88
2024/01/16 13:11:07;;;;;;;1.03;1.00;;;2.50;97.30;;;;;;4959084;28;20485;-89
2024/01/16 13:13:33;;;;;;;0.80;0.70;;;2.50;97.30;;;;;;4944532;28;20505;-89
2024/01/16 13:16:00;;;;;;;1.37;1.27;;;2.60;97.30;;;;;;4957504;28;20418;-87
2024/01/16 13:18:27;;;;;;;1.20;1.10;;;2.60;97.30;;;;;;4955878;28;20486;-89
2024/01/16 13:20:54;;;;;;;1.37;1.27;;;2.50;97.30;;;;;;4969019;28;20501;-89
2024/01/16 13:23:20;;;;;;;1.23;1.13;;;2.50;97.30;;;;;;4956432;28;20421;-89
2024/01/16 13:25:48;;;;;;;9.70;2.70;;;2.50;97.30;;;;;;4966598;28;20434;-89
2024/01/16 13:28:14;;;;;;;2.20;1.20;;;2.60;97.30;;;;;;4961692;28;20948;-89
2024/01/16 13:30:41;;;;;;;1.00;0.90;;;2.60;97.30;;;;;;4966926;28;20418;-87
2024/01/16 13:33:06;;;;;;;1.37;1.27;;;2.60;97.30;;;;;;4964283;28;20494;-87
2024/01/16 13:35:36;;;;;;;1.97;1.07;;;2.60;97.30;;;;;;4961304;28;20993;-89
2024/01/16 13:38:03;;;;;;;1.10;1.00;;;2.60;97.30;;;;;;4961578;28;20258;-87
2024/01/16 13:40:29;;;;;;;1.57;1.33;;;2.60;97.30;;;;;;4964712;28;20518;-89
2024/01/16 13:42:55;;;;;;;1.73;1.60;;;2.60;97.30;;;;;;4965321;28;20917;-88
2024/01/16 13:45:20;;;;;;;1.00;0.90;;;2.60;97.30;;;;;;4956000;28;20418;-87
2024/01/16 13:47:46;;;;;;;1.20;1.10;;;2.60;97.30;;;;;;4961948;28;20230;-89
2024/01/16 13:50:12;;;;;;;1.43;1.33;;;2.50;97.30;;;;;;4954611;28;20568;-88
2024/01/16 13:52:38;;;;;;;1.40;1.30;;;2.50;97.30;;;;;;4953418;28;20688;-88
2024/01/16 13:55:05;;;;;;;1.50;1.40;;;2.40;97.30;;;;;;4962548;28;20422;-88
2024/01/16 13:57:31;;;;;;;2.93;1.60;;;2.40;97.30;;;;;;4961676;28;20506;-89
2024/01/16 13:59:57;;;;;;;1.37;1.27;;;2.30;97.30;;;;;;4970063;28;20414;-89
2024/01/16 14:02:22;;;;;;;1.27;1.17;;;2.30;97.30;;;;;;4963408;28;20426;-88
2024/01/16 14:04:48;;;;;;;1.60;1.50;;;2.30;97.30;;;;;;4963618;28;20273;-88
2024/01/16 14:07:13;;;;;;;1.87;1.80;;;2.30;97.30;;;;;;4963912;28;20230;-88
2024/01/16 14:09:41;;;;;;;1.23;1.13;;;2.30;97.30;;;;;;4956581;28;20211;-88
2024/01/16 14:12:08;;;;;;;10.90;1.87;;;2.30;97.30;;;;;;4955759;28;20194;-86
2024/01/16 14:14:33;;;;;;;1.50;1.40;;;2.30;97.30;;;;;;4955583;28;20466;-88
2024/01/16 14:17:00;;;;;;;1.00;0.90;;;2.30;97.30;;;;;;4957497;28;21039;-89
2024/01/16 14:19:27;;;;;;;2.63;2.43;;;2.30;97.30;;;;;;4955987;28;20183;-88
2024/01/16 14:21:52;;;;;;;1.50;1.40;;;2.30;97.30;;;;;;4955254;28;20458;-86
2024/01/16 14:24:18;;;;;;;2.03;1.67;;;2.30;97.30;;;;;;4957656;28;20442;-88
2024/01/16 14:26:45;;;;;;;1.00;0.90;;;2.30;97.30;;;;;;4955880;28;20203;-88
2024/01/16 14:29:11;;;;;;;1.60;1.50;;;2.30;97.30;;;;;;4963804;28;20572;-88
2024/01/16 14:31:37;;;;;;;1.63;1.53;;;2.30;97.30;;;;;;4958999;28;20434;-85
2024/01/16 14:34:03;;;;;;;1.20;1.10;;;2.30;97.30;;;;;;4955919;28;20470;-88
2024/01/16 14:36:29;;;;;;;1.60;1.50;;;2.30;97.30;;;;;;4963139;28;20448;-87
2024/01/16 14:38:55;;;;;;;1.10;1.00;;;2.30;97.30;;;;;;4961691;28;20509;-88
2024/01/16 14:41:21;;;;;;;1.40;1.30;;;2.30;97.30;;;;;;4965795;28;20909;-88
2024/01/16 14:43:48;;;;;;;1.70;1.60;;;2.20;97.30;;;;;;4966474;28;20428;-86
2024/01/16 14:46:15;;;;;;;1.37;1.27;;;2.20;97.30;;;;;;4959796;28;20298;-87
2024/01/16 14:48:45;;;;;;;2.77;2.60;;;2.20;97.30;;;;;;4962800;28;20426;-84
2024/01/16 14:51:11;;;;;;;1.70;1.60;;;2.20;97.30;;;;;;4968867;28;20512;-88
2024/01/16 14:53:36;;;;;;;1.60;1.50;;;2.10;97.30;;;;;;4962782;28;20545;-88
2024/01/16 14:56:02;;;;;;;3.03;1.83;;;2.10;97.30;;;;;;4954361;28;20441;-89
2024/01/16 14:58:28;;;;;;;1.30;1.20;;;2.10;97.30;;;;;;4954097;28;20176;-89
2024/01/16 15:00:55;;;;;;;1.57;1.47;;;2.10;97.30;;;;;;4968903;28;20212;-88
2024/01/16 15:03:22;;;;;;;2.60;1.33;;;2.00;97.30;;;;;;4964421;28;20274;-88
2024/01/16 15:05:48;;;;;;;1.00;0.90;;;2.00;97.30;;;;;;4960561;28;20426;-88
2024/01/16 15:08:14;;;;;;;1.20;1.10;;;2.00;97.30;;;;;;4969487;28;20489;-88
2024/01/16 15:10:39;;;;;;;1.97;1.53;;;2.00;97.30;;;;;;4960177;28;20465;-89
2024/01/16 15:13:05;;;;;;;1.20;1.10;;;1.90;97.30;;;;;;4961128;28;20257;-87
2024/01/16 15:15:30;;;;;;;1.60;1.50;;;1.90;97.30;;;;;;4953904;28;20239;-89
2024/01/16 15:17:56;;;;;;;0.90;0.80;;;1.90;97.30;;;;;;4968030;28;20767;-88
2024/01/16 15:20:22;;;;;;;1.37;1.27;;;1.80;97.30;;;;;;4971957;28;20194;-89
2024/01/16 15:22:52;;;;;;;3.27;1.30;;;1.80;97.30;;;;;;4972552;28;20210;-88
2024/01/16 15:25:21;;;;;;;1.00;0.90;;;1.80;97.30;;;;;;4965160;28;20182;-88
2024/01/16 15:27:48;;;;;;;1.37;1.27;;;1.80;97.30;;;;;;4964642;28;20473;-88
2024/01/16 15:30:14;;;;;;;1.47;1.40;;;1.80;97.30;;;;;;4964158;28;20730;-89
2024/01/16 15:32:40;;;;;;;1.13;1.03;;;1.70;97.30;;;;;;4969864;28;20419;-87
2024/01/16 15:35:08;;;;;;;1.43;1.33;;;1.70;97.30;;;;;;4955679;28;20705;-86
2024/01/16 15:37:37;;;;;;;1.70;1.60;;;1.70;97.30;;;;;;4957354;28;20219;-87
2024/01/16 15:40:06;;;;;;;2.10;2.00;;;1.70;97.30;;;;;;4964327;28;20419;-87
2024/01/16 15:42:32;;;;;;;2.50;2.00;;;1.70;97.30;;;;;;4955058;28;20431;-87
2024/01/16 15:44:58;;;;;;;1.80;1.70;;;1.70;97.30;;;;;;4954784;28;20836;-86
2024/01/16 15:47:23;;;;;;;2.63;2.00;;;1.60;97.30;;;;;;4963818;28;20447;-87
2024/01/16 15:49:49;;;;;;;1.73;1.53;;;1.60;97.30;;;;;;4954110;28;20187;-88
2024/01/16 15:52:14;;;;;;;2.30;2.10;;;1.50;97.30;;;;;;4952953;28;20650;-87
2024/01/16 15:54:40;;;;;;;1.83;1.73;;;1.50;97.30;;;;;;4956022;28;20235;-87
2024/01/16 15:57:06;;;;;;;3.23;3.03;;;1.50;97.30;;;;;;4961565;28;20590;-88
2024/01/16 15:59:31;;;;;;;2.60;1.93;;;1.50;97.30;;;;;;4973268;28;20199;-89
2024/01/16 16:01:57;;;;;;;2.23;2.03;;;1.50;97.30;;;;;;4977406;28;20198;-90
2024/01/16 16:04:25;;;;;;;1.20;1.10;;;1.50;97.30;;;;;;4972235;28;20194;-88
2024/01/16 16:06:51;;;;;;;5.57;2.07;;;1.40;97.30;;;;;;4953512;28;20341;-89
2024/01/16 16:09:17;;;;;;;1.97;1.83;;;1.40;97.30;;;;;;4976657;28;20430;-90
2024/01/16 16:11:49;;;;;;;2.13;1.97;;;1.40;97.30;;;;;;4976717;28;20183;-89
2024/01/16 16:14:15;;;;;;;1.43;1.40;;;1.40;97.30;;;;;;4976293;28;20211;-89
2024/01/16 16:16:42;;;;;;;1.00;0.90;;;1.40;97.30;;;;;;4979316;28;20578;-89
2024/01/16 16:19:10;;;;;;;2.50;2.07;;;1.40;97.30;;;;;;4976557;28;20545;-88
2024/01/16 16:21:36;;;;;;;1.83;1.73;;;1.40;97.30;;;;;;4971137;28;20513;-88
2024/01/16 16:24:03;;;;;;;1.00;1.00;;;1.40;97.30;;;;;;4970172;28;20446;-87
2024/01/16 16:26:43;;;;;;;1.10;1.00;;;1.40;97.30;;;;;;4967787;28;20295;-88
2024/01/16 16:29:10;;;;;;;1.30;1.20;;;1.40;97.30;;;;;;4971088;28;20773;-88
2024/01/16 16:31:40;;;;;;;1.70;1.40;;;1.40;97.30;;;;;;4970191;28;20477;-85
2024/01/16 16:34:09;;;;;;;1.30;1.20;;;1.40;97.30;;;;;;4962373;28;20481;-89
2024/01/16 16:36:37;;;;;;;2.50;2.30;;;1.40;97.30;;;;;;4968926;28;20494;-89
2024/01/16 16:39:05;;;;;;;1.43;1.33;;;1.40;97.30;;;;;;4961869;28;20454;-89
2024/01/16 16:41:31;;;;;;;3.03;1.37;;;1.40;97.30;;;;;;4977591;28;20431;-89
2024/01/16 16:43:59;;;;;;;1.20;1.10;;;1.40;97.30;;;;;;4966581;28;20439;-88
2024/01/16 16:46:26;;;;;;;1.10;1.00;;;1.40;97.30;;;;;;4970630;28;20443;-87
2024/01/16 16:48:52;;;;;;;2.10;1.90;;;1.40;97.30;;;;;;4971801;28;20439;-88
2024/01/16 16:51:20;;;;;;;1.33;1.20;;;1.40;97.30;;;;;;4961449;28;20496;-88
2024/01/16 16:53:46;;;;;;;1.70;1.63;;;1.40;97.30;;;;;;4951676;28;20237;-88
2024/01/16 16:56:13;;;;;;;3.07;2.03;;;1.40;97.30;;;;;;4959038;28;20441;-90
2024/01/16 16:58:41;;;;;;;1.87;1.80;;;1.50;97.30;;;;;;4969925;28;20944;-89
2024/01/16 17:01:08;;;;;;;2.40;1.57;;;1.50;97.30;;;;;;4968112;28;20422;-90
2024/01/16 17:03:34;;;;;;;1.43;1.33;;;1.50;97.30;;;;;;4961220;28;20438;-88
2024/01/16 17:06:00;;;;;;;2.93;2.20;;;1.50;97.30;;;;;;4962123;28;20509;-90
2024/01/16 17:08:26;;;;;;;2.17;1.40;;;1.50;97.30;;;;;;4962316;28;20438;-90
2024/01/16 17:10:52;;;;;;;1.53;1.43;;;1.50;97.30;;;;;;4960880;28;20176;-89
2024/01/16 17:13:18;;;;;;;1.97;1.87;;;1.50;97.30;;;;;;4958907;28;20519;-89
2024/01/16 17:15:43;;;;;;;2.93;1.90;;;1.50;97.30;;;;;;4958914;28;20175;-87
2024/01/16 17:18:10;;;;;;;1.00;0.90;;;1.50;97.30;;;;;;4964989;28;20243;-88
2024/01/16 17:20:35;;;;;;;1.10;1.00;;;1.50;97.30;;;;;;4963671;28;20183;-88
2024/01/16 17:23:01;;;;;;;10.20;1.53;;;1.40;97.30;;;;;;4959237;28;21204;-87
2024/01/16 17:25:27;;;;;;;1.80;1.70;;;1.40;97.30;;;;;;4956588;28;20269;-88
2024/01/16 17:27:52;;;;;;;1.10;1.00;;;1.40;97.30;;;;;;4971298;28;20211;-90
2024/01/16 17:30:18;;;;;;;1.20;1.10;;;1.40;97.30;;;;;;4970726;28;20273;-89
2024/01/16 17:32:43;;;;;;;3.60;1.60;;;1.40;97.30;;;;;;4955393;28;20175;-90
2024/01/16 17:35:10;;;;;;;1.20;1.10;;;1.30;97.30;;;;;;4962397;28;20182;-90
2024/01/16 17:37:36;;;;;;;1.80;1.70;;;1.30;97.30;;;;;;4967929;28;20569;-90
2024/01/16 17:40:07;;;;;;;1.10;1.00;;;1.30;97.30;;;;;;4962781;28;20426;-90
2024/01/16 17:42:32;;;;;;;2.50;2.30;;;1.20;97.30;;;;;;4960439;28;20419;-90
2024/01/16 17:45:02;;;;;;;11.43;2.50;;;1.20;97.30;;;;;;4953721;28;20446;-90
2024/01/16 17:47:27;;;;;;;2.03;1.50;;;1.20;97.30;;;;;;4959981;28;20210;-90
2024/01/16 17:49:53;;;;;;;2.77;2.57;;;1.20;97.30;;;;;;4954559;28;20952;-91
2024/01/16 17:52:20;;;;;;;6.00;1.40;;;1.10;97.30;;;;;;4955611;28;20242;-87
2024/01/16 17:54:45;;;;;;;1.50;1.40;;;1.10;97.30;;;;;;4966100;28;20210;-90
2024/01/16 17:57:11;;;;;;;1.53;1.43;;;1.10;97.30;;;;;;4967381;28;20435;-90